Flight Track Log - Related Links

Times and Time Zones

All times are in EDT time to prevent confusion due to time zone crossing. See the TAM3545 flight status page for this flight to view local times or setup timezone preferences in your user account.

Time Position Orientation Groundspeed Altitude Reporting Facility
EDT Latitude Longitude Course Direction KTS MPH feet Rate Location/Type
Sat 01:57:00 AM -3.8040 -48.2684 175° South  Level Estimated
Sat 01:58:00 AM -3.9195 -48.2585 175° South  Level Estimated
Sat 01:59:00 AM -4.0349 -48.2486 175° South  Level Estimated
Sat 02:00:00 AM -4.1504 -48.2386 175° South  Level Estimated
Sat 02:01:00 AM -4.2659 -48.2287 175° South  Level Estimated
Sat 02:02:00 AM -4.3813 -48.2188 175° South  Level Estimated
Sat 02:03:00 AM -4.4968 -48.2088 175° South  Level Estimated
Sat 02:04:00 AM -4.6122 -48.1989 175° South  Level Estimated
Sat 02:05:00 AM -4.7277 -48.1889 175° South  Level Estimated
Sat 02:06:00 AM -4.8432 -48.1790 175° South  Level Estimated
Sat 02:07:00 AM -4.9586 -48.1690 175° South  Level Estimated
Sat 02:08:00 AM -5.0741 -48.1591 175° South  Level Estimated
Sat 02:09:00 AM -5.1895 -48.1491 175° South  Level Estimated
Sat 02:10:00 AM -5.3050 -48.1392 175° South  Level Estimated
Sat 02:11:00 AM -5.4205 -48.1292 175° South  Level Estimated
Sat 02:12:00 AM -5.5359 -48.1192 175° South  Level Estimated
Sat 02:13:00 AM -5.6514 -48.1093 175° South  Level Estimated
Sat 02:14:00 AM -5.7668 -48.0993 175° South  Level Estimated
Sat 02:15:00 AM -5.8823 -48.0893 175° South  Level Estimated
Sat 02:16:00 AM -5.9978 -48.0793 175° South  Level Estimated
Sat 02:17:00 AM -6.1132 -48.0693 175° South  Level Estimated
Sat 02:18:00 AM -6.2287 -48.0593 175° South  Level Estimated
Sat 02:19:00 AM -6.3442 -48.0494 175° South  Level Estimated
Sat 02:20:00 AM -6.4596 -48.0393 175° South  Level Estimated
Sat 02:21:00 AM -6.5751 -48.0293 175° South  Level Estimated
Sat 02:22:00 AM -6.6905 -48.0193 175° South  Level Estimated
Sat 02:23:00 AM -6.8060 -48.0093 175° South  Level Estimated
Sat 02:24:00 AM -6.9215 -47.9993 175° South  Level Estimated
Sat 02:25:00 AM -7.0369 -47.9893 175° South  Level Estimated
Sat 02:26:00 AM -7.1524 -47.9792 175° South  Level Estimated
Sat 02:27:00 AM -7.2678 -47.9692 175° South  Level Estimated
Sat 02:28:00 AM -7.3833 -47.9591 175° South  Level Estimated
Sat 02:29:00 AM -7.4988 -47.9491 175° South  Level Estimated
Sat 02:30:00 AM -7.6142 -47.9390 175° South  Level Estimated
Sat 02:31:00 AM -7.7297 -47.9290 175° South  Level Estimated
Sat 02:32:00 AM -7.8451 -47.9189 175° South  Level Estimated
Sat 02:33:00 AM -7.9606 -47.9089 175° South  Level Estimated
Sat 02:33:31 AM -8.1380 -48.3820 175° South 450 518 37,000  Level FlightAware ADS-B
Sat 02:34:00 AM -8.0760 -47.8988 175° South  Level Estimated
Sat 02:34:16 AM -8.2350 -48.3820 180° South 448 516 37,000  Level FlightAware ADS-B
Sat 02:35:26 AM -8.3730 -48.3840 181° South 448 516 37,000  Level FlightAware ADS-B
Sat 02:36:21 AM -8.4930 -48.3830 180° South 450 518 37,000  Level FlightAware ADS-B
Sat 02:37:01 AM -8.5750 -48.3820 179° South 451 519 37,000  Level FlightAware ADS-B
Sat 02:37:46 AM -8.6700 -48.3800 179° South 454 522 37,000  Level FlightAware ADS-B
Sat 02:38:26 AM -8.7530 -48.3790 179° South 456 525 37,000  Level FlightAware ADS-B
Sat 02:39:21 AM -8.8640 -48.3780 179° South 456 525 37,000  Level FlightAware ADS-B
Sat 02:41:00 AM -9.0538 -48.3547 173° South  Level Estimated
Sat 02:41:11 AM -9.0930 -48.3750 173° South 456 525 37,000  Level FlightAware ADS-B
Sat 02:41:56 AM -9.1930 -48.3730 179° South 456 525 37,000  Level FlightAware ADS-B
Sat 02:42:36 AM -9.2820 -48.3720 179° South 456 525 37,000  Level FlightAware ADS-B
Sat 02:43:21 AM -9.3650 -48.3710 179° South 456 525 37,000  Level FlightAware ADS-B
Sat 02:44:01 AM -9.4620 -48.3700 179° South 458 527 37,000  Level FlightAware ADS-B
Sat 02:44:41 AM -9.5440 -48.3680 179° South 458 527 37,000  Level FlightAware ADS-B
Sat 02:45:56 AM -9.6980 -48.3660 179° South 458 527 37,000  Level FlightAware ADS-B
Sat 02:46:36 AM -9.7810 -48.3650 179° South 458 527 37,000  Level FlightAware ADS-B
Sat 02:47:16 AM -9.8710 -48.3640 179° South 457 526 37,000  Level FlightAware ADS-B
Sat 02:48:01 AM -9.9660 -48.3630 179° South 457 526 37,000  Level FlightAware ADS-B
Sat 02:48:41 AM -10.0380 -48.3610 178° South 457 526 37,000  Level FlightAware ADS-B
Sat 02:49:21 AM -10.1100 -48.3600 179° South 457 526 37,000  Level FlightAware ADS-B
Sat 02:52:00 AM -10.4145 -48.3194 173° South  Level Estimated
Sat 02:53:00 AM -10.5294 -48.3040 173° South  Level Estimated
Sat 02:54:00 AM -10.6443 -48.2886 173° South  Level Estimated
Sat 02:55:00 AM -10.7592 -48.2732 173° South  Level Estimated
Sat 02:56:00 AM -10.8741 -48.2578 173° South  Level Estimated
Sat 02:57:00 AM -10.9890 -48.2424 173° South  Level Estimated
Sat 02:57:06 AM -11.1130 -48.3090 173° South 458 527 37,000  Level FlightAware ADS-B
Sat 02:57:46 AM -11.2100 -48.3040 177° South 458 527 37,000  Level FlightAware ADS-B
Sat 02:58:41 AM -11.3180 -48.2970 176° South 458 527 37,000  Level FlightAware ADS-B
Sat 03:00:12 AM -11.5120 -48.2850 177° South 458 527 37,000  Level FlightAware ADS-B
Sat 03:00:52 AM -11.5830 -48.2800 176° South 458 527 37,000  Level FlightAware ADS-B
Sat 03:01:32 AM -11.6550 -48.2750 176° South 458 527 37,000  Level FlightAware ADS-B
Sat 03:03:37 AM -11.9550 -48.2590 177° South 459 528 37,000  Level FlightAware ADS-B
Sat 03:04:22 AM -12.0470 -48.2540 177° South 457 526 37,000  Level FlightAware ADS-B
Sat 03:05:07 AM -12.1360 -48.2480 176° South 455 524 37,000  Level FlightAware ADS-B
Sat 03:05:47 AM -12.2290 -48.2430 177° South 454 522 37,000  Level FlightAware ADS-B
Sat 03:06:27 AM -12.3150 -48.2380 177° South 452 520 37,000  Level FlightAware ADS-B
Sat 03:07:12 AM -12.4050 -48.2320 176° South 451 519 37,000  Level FlightAware ADS-B
Sat 03:08:07 AM -12.5230 -48.2250 177° South 449 517 37,000  Level FlightAware ADS-B
Sat 03:08:42 AM -12.5930 -48.2200 176° South 449 517 37,000  Level FlightAware ADS-B
Sat 03:09:32 AM -12.6810 -48.2140 176° South 449 517 37,000  Level FlightAware ADS-B
Sat 03:10:12 AM -12.7520 -48.2090 176° South 449 517 37,000  Level FlightAware ADS-B
Sat 03:10:52 AM -12.8220 -48.2040 176° South 449 517 37,000  Level FlightAware ADS-B
Sat 03:11:32 AM -12.8920 -48.1990 176° South 449 517 37,000  Level FlightAware ADS-B
Sat 03:12:12 AM -12.9630 -48.1940 176° South 449 517 37,000  Level FlightAware ADS-B
Sat 03:13:02 AM -13.0510 -48.1880 176° South 449 517 37,000  Level FlightAware ADS-B
Sat 03:13:42 AM -13.1210 -48.1830 176° South 449 517 37,000 -15 Level FlightAware ADS-B
Sat 03:16:00 AM -13.3845 -48.1415 171° South  Level Estimated
Sat 03:17:00 AM -13.4990 -48.1234 171° South  Level Estimated
Sat 03:18:00 AM -13.6136 -48.1054 171° South  Level Estimated
Sat 03:19:00 AM -13.7281 -48.0873 171° South  Level Estimated
Sat 03:20:00 AM -13.8427 -48.0691 171° South  Level Estimated
Sat 03:21:00 AM -13.9572 -48.0510 171° South  Level Estimated
Sat 03:22:00 AM -14.0717 -48.0328 171° South  Level Estimated
Sat 03:23:00 AM -14.1863 -48.0147 171° South  Level Estimated
Sat 03:24:00 AM -14.3008 -47.9965 171° South  Level Estimated
Sat 03:25:00 AM -14.4154 -47.9783 171° South  Level Estimated
Sat 03:26:00 AM -14.5299 -47.9600 171° South  Level Estimated
Sat 03:27:00 AM -14.6444 -47.9418 171° South  Level Estimated
Sat 03:28:00 AM -14.7590 -47.9235 171° South  Level Estimated
Sat 03:29:00 AM -14.8735 -47.9052 171° South  Level Estimated
Sat 03:30:00 AM -14.9880 -47.8869 171° South  Level Estimated
Sat 03:31:00 AM -15.1025 -47.8686 171° South  Level Estimated
Sat 03:32:00 AM -15.2171 -47.8502 171° South  Level Estimated
Sat 03:33:00 AM -15.3316 -47.8319 171° South  Level Estimated
Sat 03:34:00 AM -15.4461 -47.8135 171° South  Level Estimated
Sat 03:35:00 AM -15.5606 -47.7951 171° South  Level Estimated
Sat 03:36:00 AM -15.6752 -47.7766 171° South  Level Estimated
Sat 03:37:00 AM -15.7897 -47.7582 171° South  Level Estimated
Sat 03:38:00 AM -15.9042 -47.7397 171° South  Level Estimated
Sat 03:39:00 AM -16.0187 -47.7212 171° South  Level Estimated
Sat 03:40:00 AM -16.1332 -47.7027 171° South  Level Estimated
Sat 03:41:00 AM -16.2478 -47.6842 171° South  Level Estimated
Sat 03:42:00 AM -16.3623 -47.6656 171° South  Level Estimated
Sat 03:43:00 AM -16.4768 -47.6471 171° South  Level Estimated
Sat 03:44:00 AM -16.5913 -47.6285 171° South  Level Estimated
Sat 03:45:00 AM -16.7058 -47.6099 171° South  Level Estimated
Sat 03:46:00 AM -16.8203 -47.5912 171° South  Level Estimated
Sat 03:47:00 AM -16.9348 -47.5726 171° South  Level Estimated
Sat 03:48:00 AM -17.0493 -47.5539 171° South  Level Estimated
Sat 03:49:00 AM -17.1638 -47.5351 171° South  Level Estimated
Sat 03:50:00 AM -17.2783 -47.5164 171° South  Level Estimated
Sat 03:51:00 AM -17.3928 -47.4977 171° South  Level Estimated
Sat 03:52:00 AM -17.5073 -47.4789 171° South  Level Estimated
Sat 03:53:00 AM -17.6218 -47.4601 171° South  Level Estimated
Sat 03:54:00 AM -17.7363 -47.4412 171° South  Level Estimated
Sat 03:55:00 AM -17.8508 -47.4224 171° South  Level Estimated
Sat 03:56:00 AM -17.9653 -47.4035 171° South  Level Estimated
Sat 03:57:00 AM -18.0798 -47.3846 171° South  Level Estimated
Sat 03:58:00 AM -18.1942 -47.3657 171° South  Level Estimated
Sat 03:59:00 AM -18.3087 -47.3467 171° South  Level Estimated
Sat 04:00:00 AM -18.4232 -47.3278 171° South  Level Estimated
Sat 04:01:00 AM -18.5377 -47.3088 171° South  Level Estimated
Sat 04:02:00 AM -18.6522 -47.2897 171° South  Level Estimated
Sat 04:03:00 AM -18.7666 -47.2707 171° South  Level Estimated
Sat 04:04:00 AM -18.8811 -47.2516 171° South  Level Estimated
Sat 04:05:00 AM -18.9956 -47.2325 171° South  Level Estimated
Sat 04:06:00 AM -19.1101 -47.2134 171° South  Level Estimated
Sat 04:07:00 AM -19.2245 -47.1942 171° South  Level Estimated
Sat 04:08:00 AM -19.3390 -47.1750 171° South  Level Estimated
Sat 04:09:00 AM -19.4534 -47.1558 171° South  Level Estimated
Sat 04:10:00 AM -19.5679 -47.1366 171° South  Level Estimated
Sat 04:11:00 AM -19.6824 -47.1173 171° South  Level Estimated
Sat 04:12:00 AM -19.7968 -47.0980 171° South  Level Estimated
Sat 04:13:00 AM -19.9113 -47.0787 171° South  Level Estimated
Sat 04:14:00 AM -20.0257 -47.0594 171° South  Level Estimated
Sat 04:15:00 AM -20.1402 -47.0400 171° South  Level Estimated
Sat 04:16:00 AM -20.2546 -47.0206 171° South  Level Estimated
Sat 04:17:00 AM -20.3691 -47.0012 171° South  Level Estimated
Sat 04:18:00 AM -20.4835 -46.9817 171° South  Level Estimated
Sat 04:19:00 AM -20.5980 -46.9622 171° South  Level Estimated
Sat 04:19:52 AM -21.1180 -47.4130 171° South 417 480 36,000  Level FlightAware ADS-B
Sat 04:20:00 AM -20.7124 -46.9427 171° South  Level Estimated
Sat 04:20:37 AM -21.1980 -47.4050 175° South 417 480 36,000  Level FlightAware ADS-B
Sat 04:21:27 AM -21.3080 -47.3980 177° South 418 481 36,000  Level FlightAware ADS-B
Sat 04:22:07 AM -21.3830 -47.3920 176° South 419 482 36,000  Level FlightAware ADS-B
Sat 04:22:47 AM -21.4630 -47.3860 176° South 419 482 36,000  Level FlightAware ADS-B
Sat 04:23:32 AM -21.5490 -47.3790 176° South 418 481 36,000  Level FlightAware ADS-B
Sat 04:24:12 AM -21.6280 -47.3730 176° South 418 481 36,000  Level FlightAware ADS-B
Sat 04:24:52 AM -21.7050 -47.3660 175° South 419 482 36,000  Level FlightAware ADS-B
Sat 04:25:27 AM -21.7730 -47.3610 176° South 420 483 36,000 -847 Level FlightAware ADS-B
Sat 04:26:17 AM -21.8710 -47.3530 176° South 418 481 34,800 -1,705 Descending FlightAware ADS-B
Sat 04:27:02 AM -21.9570 -47.3470 176° South 407 468 33,300 -2,118 Descending FlightAware ADS-B
Sat 04:27:42 AM -22.0290 -47.3260 165° South 402 463 31,800 -2,188 Descending FlightAware ADS-B
Sat 04:28:27 AM -22.1110 -47.2920 159° South 396 456 30,200 -2,188 Descending FlightAware ADS-B
Sat 04:29:07 AM -22.1800 -47.2640 159° South 398 458 28,700 -2,160 Descending FlightAware ADS-B
Sat 04:29:42 AM -22.2380 -47.2400 159° South 394 453 27,500 -2,040 Descending FlightAware ADS-B
Sat 04:31:37 AM -22.4250 -47.1620 159° South 368 423 23,600 -1,989 Descending FlightAware ADS-B
Sat 04:32:52 AM -22.5450 -47.1110 159° South 364 419 21,200 -1,930 Descending FlightAware ADS-B
Sat 04:33:32 AM -22.6080 -47.0840 158° South 360 414 19,900 -1,800 Descending FlightAware ADS-B
Sat 04:34:12 AM -22.6710 -47.0580 159° South 348 400 18,800 -1,694 Descending FlightAware ADS-B
Sat 04:34:57 AM -22.7370 -47.0300 159° South 343 395 17,500 -1,694 Descending FlightAware ADS-B
Sat 04:35:37 AM -22.8010 -47.0040 159° South 348 400 16,400 -1,694 Descending FlightAware ADS-B
Sat 04:36:22 AM -22.8690 -46.9750 159° South 345 397 15,100 -1,694 Descending FlightAware ADS-B
Sat 04:37:02 AM -22.9270 -46.9510 159° South 332 382 14,000 -1,694 Descending FlightAware ADS-B
Sat 04:37:47 AM -22.9930 -46.9230 159° South 332 382 12,700 -1,694 Descending FlightAware ADS-B
Sat 04:38:27 AM -23.0510 -46.8990 159° South 329 379 11,600 -1,412 Descending FlightAware ADS-B
Sat 04:39:12 AM -23.1130 -46.8730 159° South 311 358 10,700 -1,200 Descending FlightAware ADS-B
Sat 04:39:52 AM -23.1660 -46.8500 158° South 297 342 9,900 -1,385 Descending FlightAware ADS-B
Sat 04:40:17 AM -23.1960 -46.8370 158° South 295 339 9,200 -1,200 Descending FlightAware ADS-B
Sat 04:40:47 AM -23.2350 -46.8210 159° South 277 319 8,800 -655 Descending FlightAware ADS-B
Sat 04:41:12 AM -23.2650 -46.8100 161° South 252 290 8,600 -545 Descending FlightAware ADS-B
Sat 04:41:42 AM -23.2970 -46.7990 162° South 237 273 8,300 -500 Descending FlightAware ADS-B
Sat 04:42:12 AM -23.3290 -46.7880 162° South 221 254 8,100 -500 Descending FlightAware ADS-B
Sat 04:42:42 AM -23.3590 -46.7790 165° South 218 251 7,800 -600 Descending FlightAware ADS-B
Sat 04:42:52 AM -23.3680 -46.7750 158° South 217 250 7,700 -800 Descending FlightAware ADS-B
Sat 04:43:12 AM -23.3870 -46.7690 164° South 207 238 7,400 -800 Descending FlightAware ADS-B
Sat 04:43:52 AM -23.4250 -46.7570 164° South 201 231 6,900 -738 Descending FlightAware ADS-B
Sat 04:44:17 AM -23.4410 -46.7470 150° Southeast 194 223 6,600 -655 Descending FlightAware ADS-B
Sat 04:44:47 AM -23.4640 -46.7290 144° Southeast 190 219 6,300 -750 Descending FlightAware ADS-B
Sat 04:44:57 AM -23.4700 -46.7210 129° Southeast 178 205 6,100 -750 Descending FlightAware ADS-B
Sat 04:45:27 AM -23.4800 -46.6960 114° Southeast 179 206 5,800 -700 Descending FlightAware ADS-B
Sat 04:45:57 AM -23.4860 -46.6690 104° East 182 209 5,400 -764 Descending FlightAware ADS-B
Sat 04:46:22 AM -23.4820 -46.6460 79° East 184 212 5,100 -873 Descending FlightAware ADS-B
Sat 04:46:52 AM -23.4750 -46.6200 74° East 176 203 4,600 -900 Descending FlightAware ADS-B
Sat 04:47:22 AM -23.4680 -46.5970 72° East 159 183 4,200 -764 Descending FlightAware ADS-B
Sat 04:47:47 AM -23.4630 -46.5780 74° East 148 170 3,900 -840 Descending FlightAware ADS-B
Sat 04:48:12 AM -23.4590 -46.5610 76° East 136 157 3,500 -764 Descending FlightAware ADS-B
Sat 04:48:42 AM -23.4530 -46.5410 72° East 134 154 3,200 -600 Descending FlightAware ADS-B
Sat 04:49:12 AM -23.4480 -46.5210 75° East 136 157 2,900 -700 Descending FlightAware ADS-B
Sat 04:49:42 AM -23.4430 -46.5020 74° East 136 157 2,500 -764 Descending FlightAware ADS-B
Sat 04:50:07 AM -23.4390 -46.4860 75° East 136 157 2,200 -720 Descending FlightAware ADS-B

Login

Don't have an account? Register now (free) for customized features, flight alerts, and more!